Pierson, Michigan
Current Conditions -  °F | °C
As of 4:33 AM on Sunday 26 Oct 2014 (Local Time) from KFFX Reporting Station
Clear Clear  
Wind Chill: 39°   Ceiling: Unl
Heat Index: 42°   Visibility: 10mi
Dew Point: 31°   Wind: 5mph
Humidity: 66%   Direction: 290°WNW
Pressure: 29.91"   Gusts: NA
Location:  43.32°N, 85.5°W
Report Text: KFFX 260833Z AUTO 29004KT 10SM CLR 05/M01 A2991 RMK AO2 T00531006
Loading
Personal Weather Stations






























Interactive Weather Map
Tropical Storm Tracking
New forecast layout! Learn more

10-Day Weather Forecast

Advertisements
Track Severe Weather on mobile